createdAt,value
2022-09-29T00:00:02.529Z,1.00
2022-09-29T00:01:05.929Z,1.50
2022-09-29T00:02:09.305Z,0.25
2022-09-29T00:03:12.812Z,0.00
2022-09-29T00:04:16.149Z,0.00
2022-09-29T00:05:19.491Z,0.00
2022-09-29T00:06:22.830Z,1.00
2022-09-29T00:07:26.190Z,0.50
2022-09-29T00:08:29.620Z,0.50
2022-09-29T00:09:32.950Z,0.00
2022-09-29T00:10:36.345Z,0.00
2022-09-29T00:11:39.786Z,0.00
2022-09-29T00:12:43.167Z,0.50
2022-09-29T00:13:46.551Z,0.00
2022-09-29T00:14:49.919Z,0.00
2022-09-29T00:15:53.303Z,0.50
2022-09-29T00:16:56.721Z,0.00
2022-09-29T00:18:13.128Z,0.00
2022-09-29T00:19:04.706Z,0.50
2022-09-29T00:20:08.030Z,0.50
2022-09-29T00:21:12.504Z,0.00
2022-09-29T00:22:15.820Z,0.00
2022-09-29T00:23:19.267Z,0.00
2022-09-29T00:24:22.622Z,1.00
2022-09-29T00:25:25.983Z,1.00
2022-09-29T00:26:29.622Z,0.00
2022-09-29T00:27:33.192Z,0.00
2022-09-29T00:28:36.707Z,0.25
2022-09-29T00:29:40.242Z,0.25
2022-09-29T00:30:43.790Z,0.00
2022-09-29T00:31:47.569Z,0.00
2022-09-29T00:32:51.282Z,0.25
2022-09-29T00:33:54.577Z,0.00
2022-09-29T00:34:57.974Z,0.00
2022-09-29T00:36:01.356Z,0.50
2022-09-29T00:37:04.826Z,1.00
2022-09-29T00:38:08.120Z,0.50
2022-09-29T00:39:11.462Z,0.00
2022-09-29T00:40:14.769Z,0.00
2022-09-29T00:41:18.160Z,1.00
2022-09-29T00:42:21.992Z,0.75
2022-09-29T00:43:25.365Z,0.50
2022-09-29T00:44:29.019Z,1.00
2022-09-29T00:45:32.642Z,1.00
2022-09-29T00:46:36.304Z,0.75
2022-09-29T00:47:40.051Z,0.00
2022-09-29T00:48:43.685Z,0.00
2022-09-29T00:49:47.291Z,0.00
2022-09-29T00:50:50.947Z,0.75
2022-09-29T00:51:54.567Z,0.00
2022-09-29T00:52:58.331Z,0.50
2022-09-29T00:54:01.928Z,0.50
2022-09-29T00:55:05.538Z,0.50
2022-09-29T00:56:08.901Z,0.75
2022-09-29T00:57:12.585Z,0.50
2022-09-29T00:58:15.969Z,1.50
2022-09-29T00:59:19.352Z,2.00
2022-09-29T01:00:22.757Z,0.25
2022-09-29T01:01:26.234Z,1.00
2022-09-29T01:02:29.980Z,1.00
2022-09-29T01:03:33.778Z,0.50
2022-09-29T01:04:37.343Z,0.50
2022-09-29T01:05:41.023Z,1.00
2022-09-29T01:06:44.388Z,0.50
2022-09-29T01:07:48.016Z,0.75
2022-09-29T01:08:51.710Z,1.50
2022-09-29T01:09:55.210Z,0.75
2022-09-29T01:10:58.670Z,0.00
2022-09-29T01:12:02.134Z,1.00
2022-09-29T01:13:05.465Z,0.50
2022-09-29T01:14:09.002Z,1.00
2022-09-29T01:15:12.466Z,1.00
2022-09-29T01:16:15.903Z,1.00
2022-09-29T01:17:19.347Z,1.00
2022-09-29T01:18:22.734Z,1.60
2022-09-29T01:19:26.127Z,2.00
2022-09-29T01:20:29.845Z,0.50
2022-09-29T01:21:33.445Z,0.75
2022-09-29T01:22:36.831Z,0.25
2022-09-29T01:23:40.191Z,0.25
2022-09-29T01:24:44.051Z,0.00
2022-09-29T01:25:47.730Z,0.25
2022-09-29T01:26:51.320Z,0.00
2022-09-29T01:27:54.942Z,0.50
2022-09-29T01:28:58.492Z,1.00
2022-09-29T01:30:02.250Z,1.00
2022-09-29T01:31:05.911Z,0.50
2022-09-29T01:32:09.288Z,0.00
2022-09-29T01:33:12.906Z,0.50
2022-09-29T01:34:16.171Z,0.00
2022-09-29T01:35:19.816Z,0.00
2022-09-29T01:36:23.223Z,0.50
2022-09-29T01:37:26.571Z,0.75
2022-09-29T01:38:29.849Z,0.50
2022-09-29T01:39:33.240Z,0.00
2022-09-29T01:40:36.978Z,0.00
2022-09-29T01:41:40.659Z,0.00
2022-09-29T01:42:44.363Z,0.50
2022-09-29T01:43:47.923Z,0.00
2022-09-29T01:44:51.503Z,0.00
2022-09-29T01:45:55.125Z,0.00
2022-09-29T01:46:58.489Z,0.00
2022-09-29T01:48:01.783Z,0.75
2022-09-29T01:49:05.130Z,0.40
2022-09-29T01:50:08.430Z,0.50
2022-09-29T01:51:11.784Z,0.50
2022-09-29T01:52:15.045Z,0.00
2022-09-29T01:53:18.372Z,0.00
2022-09-29T01:54:21.725Z,0.00
2022-09-29T01:55:25.071Z,0.25
2022-09-29T01:56:28.455Z,0.00
2022-09-29T01:57:31.766Z,0.50
2022-09-29T01:58:35.261Z,0.25
2022-09-29T01:59:38.806Z,0.25
2022-09-29T02:00:42.434Z,0.00
2022-09-29T02:01:46.239Z,1.00
2022-09-29T02:02:49.870Z,0.00
2022-09-29T02:03:53.320Z,0.50
2022-09-29T02:04:56.860Z,1.00
2022-09-29T02:06:00.227Z,0.00
2022-09-29T02:07:03.621Z,1.00
2022-09-29T02:08:06.919Z,0.50
2022-09-29T02:09:10.412Z,0.50
2022-09-29T02:10:13.662Z,0.50
2022-09-29T02:11:17.226Z,0.00
2022-09-29T02:12:20.620Z,0.50
2022-09-29T02:13:24.093Z,0.00
2022-09-29T02:14:27.398Z,0.00
2022-09-29T02:15:31.054Z,0.00
2022-09-29T02:16:34.755Z,1.00
2022-09-29T02:17:38.399Z,1.00
2022-09-29T02:18:42.030Z,1.00
2022-09-29T02:19:45.635Z,0.75
2022-09-29T02:20:49.219Z,0.00
2022-09-29T02:21:52.853Z,0.00
2022-09-29T02:22:56.413Z,0.50
2022-09-29T02:23:59.981Z,1.25
2022-09-29T02:25:03.601Z,0.50
2022-09-29T02:26:07.204Z,0.00
2022-09-29T02:27:10.793Z,1.00
2022-09-29T02:28:14.170Z,1.25
2022-09-29T02:29:17.691Z,2.00
2022-09-29T02:30:21.041Z,1.00
2022-09-29T02:31:24.746Z,1.00
2022-09-29T02:32:28.192Z,0.50
2022-09-29T02:33:31.585Z,0.50
2022-09-29T02:34:35.030Z,0.50
2022-09-29T02:35:38.674Z,0.00
2022-09-29T02:36:42.241Z,0.00
2022-09-29T02:37:45.896Z,0.00
2022-09-29T02:38:49.500Z,1.00
2022-09-29T02:39:53.084Z,2.00
2022-09-29T02:40:56.817Z,0.50
2022-09-29T02:42:00.384Z,1.33
2022-09-29T02:43:03.730Z,2.00
2022-09-29T02:44:06.980Z,1.75
2022-09-29T02:45:10.264Z,2.00
2022-09-29T02:46:13.533Z,0.50
2022-09-29T02:47:16.876Z,0.50
2022-09-29T02:48:20.165Z,1.75
2022-09-29T02:49:23.649Z,2.00
2022-09-29T02:50:26.948Z,2.00
2022-09-29T02:51:30.277Z,1.75
2022-09-29T02:52:33.668Z,2.00
2022-09-29T02:53:37.039Z,2.00
2022-09-29T02:54:40.487Z,1.75
2022-09-29T02:55:43.865Z,4.00
2022-09-29T02:56:47.191Z,2.00
2022-09-29T02:57:50.506Z,0.50
2022-09-29T02:58:53.892Z,1.25
2022-09-29T02:59:57.302Z,1.00
2022-09-29T03:01:00.697Z,1.00
2022-09-29T03:02:04.004Z,1.00
2022-09-29T03:03:07.521Z,0.00
2022-09-29T03:04:10.831Z,1.00
2022-09-29T03:05:14.389Z,1.00
2022-09-29T03:06:17.742Z,1.50
2022-09-29T03:07:21.107Z,1.50
2022-09-29T03:08:24.541Z,0.75
2022-09-29T03:09:27.863Z,1.00
2022-09-29T03:10:31.296Z,1.00
2022-09-29T03:11:34.684Z,0.60
2022-09-29T03:12:37.998Z,0.50
2022-09-29T03:13:41.422Z,1.00
2022-09-29T03:14:44.784Z,1.50
2022-09-29T03:15:48.332Z,2.00
2022-09-29T03:16:51.709Z,1.75
2022-09-29T03:17:55.085Z,0.75
2022-09-29T03:18:58.451Z,0.00
2022-09-29T03:20:01.791Z,1.50
2022-09-29T03:21:05.181Z,1.50
2022-09-29T03:22:08.432Z,0.50
2022-09-29T03:23:11.767Z,0.50
2022-09-29T03:24:15.174Z,1.00
2022-09-29T03:25:18.558Z,1.00
2022-09-29T03:26:22.095Z,1.00
2022-09-29T03:27:25.412Z,1.50
2022-09-29T03:28:28.733Z,1.50
2022-09-29T03:29:32.090Z,0.50
2022-09-29T03:30:35.473Z,0.00
2022-09-29T03:31:39.090Z,0.25
2022-09-29T03:32:42.677Z,1.00
2022-09-29T03:33:46.274Z,1.00
2022-09-29T03:34:49.861Z,1.00
2022-09-29T03:35:53.474Z,0.75
2022-09-29T03:36:57.141Z,1.75
2022-09-29T03:38:00.671Z,2.00
2022-09-29T03:39:03.976Z,1.00
2022-09-29T03:40:07.629Z,1.00
2022-09-29T03:41:10.933Z,1.50
2022-09-29T03:42:14.223Z,1.75
2022-09-29T03:43:17.471Z,1.50
2022-09-29T03:44:20.828Z,1.00
2022-09-29T03:45:24.222Z,0.50
2022-09-29T03:46:27.657Z,0.75
2022-09-29T03:47:30.953Z,0.75
2022-09-29T03:48:34.338Z,0.75
2022-09-29T03:49:37.709Z,1.00
2022-09-29T03:50:41.074Z,0.50
2022-09-29T03:51:44.396Z,0.40
2022-09-29T03:52:47.819Z,1.00
2022-09-29T03:53:51.189Z,0.00
2022-09-29T03:54:54.468Z,0.25
2022-09-29T03:55:57.912Z,0.00
2022-09-29T03:57:01.257Z,0.00
2022-09-29T03:58:04.609Z,0.20
2022-09-29T03:59:07.966Z,0.00
2022-09-29T04:00:11.270Z,0.00
2022-09-29T04:01:14.710Z,0.00
2022-09-29T04:02:18.270Z,0.00
2022-09-29T04:03:22.005Z,1.00
2022-09-29T04:04:25.336Z,0.50
2022-09-29T04:05:28.690Z,0.50
2022-09-29T04:06:32.042Z,0.50
2022-09-29T04:07:35.354Z,0.00
2022-09-29T04:08:38.760Z,0.00
2022-09-29T04:09:42.452Z,0.50
2022-09-29T04:10:45.947Z,1.00
2022-09-29T04:11:49.469Z,1.00
2022-09-29T04:12:53.124Z,1.00
2022-09-29T04:13:56.831Z,1.00
2022-09-29T04:15:00.456Z,0.50
2022-09-29T04:16:04.149Z,1.25
2022-09-29T04:17:07.690Z,1.00
2022-09-29T04:18:11.104Z,2.00
2022-09-29T04:19:14.552Z,2.00
2022-09-29T04:20:17.834Z,2.00
2022-09-29T04:21:21.296Z,1.75
2022-09-29T04:22:24.755Z,1.25
2022-09-29T04:23:28.101Z,2.00
2022-09-29T04:24:31.486Z,1.00
2022-09-29T04:25:34.831Z,1.00
2022-09-29T04:26:38.138Z,1.50
2022-09-29T04:27:41.584Z,0.50
2022-09-29T04:28:44.849Z,2.50
2022-09-29T04:29:48.241Z,2.20
2022-09-29T04:30:51.505Z,2.75
2022-09-29T04:31:55.242Z,2.75
2022-09-29T04:32:58.615Z,2.50
2022-09-29T04:34:02.089Z,0.25
2022-09-29T04:35:05.909Z,1.00
2022-09-29T04:36:09.264Z,0.25
2022-09-29T04:37:12.833Z,1.50
2022-09-29T04:38:16.119Z,1.75
2022-09-29T04:39:19.769Z,0.75
2022-09-29T04:40:23.192Z,1.00
2022-09-29T04:41:26.789Z,1.50
2022-09-29T04:42:30.151Z,0.75
2022-09-29T04:43:33.772Z,1.00
2022-09-29T04:44:37.535Z,1.00
2022-09-29T04:45:41.162Z,0.75
2022-09-29T04:46:44.880Z,0.50
2022-09-29T04:47:48.484Z,2.00
2022-09-29T04:48:51.941Z,1.50
2022-09-29T04:49:55.249Z,0.00
2022-09-29T04:50:58.548Z,0.00
2022-09-29T04:52:02.003Z,1.00
2022-09-29T04:53:05.302Z,1.00
2022-09-29T04:54:08.763Z,0.50
2022-09-29T04:55:12.379Z,0.00
2022-09-29T04:56:15.714Z,0.00
2022-09-29T04:57:19.082Z,0.00
2022-09-29T04:58:22.498Z,0.00
2022-09-29T04:59:25.949Z,0.50
2022-09-29T05:00:29.367Z,0.00
2022-09-29T05:01:32.860Z,0.50
2022-09-29T05:02:36.328Z,0.75
2022-09-29T05:03:39.852Z,0.50
2022-09-29T05:04:43.152Z,0.00
2022-09-29T05:05:50.175Z,0.00
2022-09-29T05:06:53.635Z,0.50
2022-09-29T05:07:56.975Z,1.00
2022-09-29T05:09:00.366Z,0.75
2022-09-29T05:10:03.730Z,1.00
2022-09-29T05:11:07.141Z,1.20
2022-09-29T05:12:10.957Z,0.50
2022-09-29T05:13:14.298Z,1.00
2022-09-29T05:14:17.581Z,1.50
2022-09-29T05:15:25.540Z,1.25
2022-09-29T05:16:25.677Z,1.00
2022-09-29T05:17:29.281Z,1.00
2022-09-29T05:18:33.790Z,1.25
2022-09-29T05:19:37.409Z,1.00
2022-09-29T05:20:48.182Z,0.50
2022-09-29T05:23:02.485Z,0.50
2022-09-29T05:24:05.824Z,2.00
2022-09-29T05:25:09.762Z,2.00
2022-09-29T05:26:13.051Z,1.50
2022-09-29T05:27:16.599Z,1.50
2022-09-29T05:28:20.028Z,2.25
2022-09-29T05:29:23.529Z,3.00
2022-09-29T05:30:26.968Z,2.75
2022-09-29T05:31:30.468Z,1.50
2022-09-29T05:32:34.025Z,2.50
2022-09-29T05:33:37.569Z,2.50
2022-09-29T05:34:40.982Z,2.50
2022-09-29T05:35:44.348Z,2.00
2022-09-29T05:36:47.737Z,0.25
2022-09-29T05:37:51.310Z,1.75
2022-09-29T05:38:55.080Z,2.00
2022-09-29T05:39:58.691Z,1.75
2022-09-29T05:41:02.324Z,1.75
2022-09-29T05:42:06.009Z,1.75
2022-09-29T05:43:09.719Z,1.25
2022-09-29T05:44:13.061Z,1.00
2022-09-29T05:45:16.323Z,1.50
2022-09-29T05:46:19.738Z,1.00
2022-09-29T05:47:23.210Z,1.00
2022-09-29T05:48:26.547Z,1.00
2022-09-29T05:49:30.084Z,1.00
2022-09-29T05:50:33.727Z,1.00
2022-09-29T05:51:37.311Z,1.50
2022-09-29T05:52:40.871Z,1.75
2022-09-29T05:53:44.489Z,1.50
2022-09-29T05:54:48.183Z,1.25
2022-09-29T05:55:51.789Z,1.50
2022-09-29T05:56:55.369Z,0.50
2022-09-29T05:57:58.966Z,1.50
2022-09-29T05:59:02.587Z,2.25
2022-09-29T06:00:06.300Z,0.50
2022-09-29T06:01:09.933Z,1.00
2022-09-29T06:02:13.386Z,2.00
2022-09-29T06:03:17.002Z,2.00
2022-09-29T06:04:20.252Z,1.00
2022-09-29T06:05:23.531Z,1.00
2022-09-29T06:06:26.785Z,2.00
2022-09-29T06:07:30.224Z,2.00
2022-09-29T06:08:33.872Z,1.50
2022-09-29T06:09:37.427Z,1.00
2022-09-29T06:10:41.119Z,1.00
2022-09-29T06:11:44.836Z,1.00
2022-09-29T06:12:48.209Z,1.00
2022-09-29T06:13:51.592Z,0.25
2022-09-29T06:14:55.030Z,0.50
2022-09-29T06:15:58.563Z,0.50
2022-09-29T06:17:02.006Z,1.00
2022-09-29T06:18:05.384Z,0.50
2022-09-29T06:19:09.092Z,1.50
2022-09-29T06:20:12.374Z,0.25
2022-09-29T06:21:15.933Z,1.00
2022-09-29T06:22:19.170Z,1.25
2022-09-29T06:23:22.466Z,1.00
2022-09-29T06:24:25.863Z,0.00
2022-09-29T06:25:29.253Z,1.00
2022-09-29T06:26:34.727Z,2.00
2022-09-29T06:27:38.096Z,1.25
2022-09-29T06:28:41.627Z,1.00
2022-09-29T06:29:45.307Z,2.50
2022-09-29T06:30:48.993Z,2.25
2022-09-29T06:31:52.880Z,1.25
2022-09-29T06:32:56.529Z,1.25
2022-09-29T06:34:00.098Z,1.50
2022-09-29T06:35:03.725Z,0.50
2022-09-29T06:36:07.286Z,1.25
2022-09-29T06:37:11.032Z,2.25
2022-09-29T06:38:14.408Z,0.25
2022-09-29T06:39:18.235Z,1.50
2022-09-29T06:40:21.682Z,2.50
2022-09-29T06:41:25.037Z,1.00
2022-09-29T06:42:28.593Z,1.50
2022-09-29T06:43:32.013Z,0.50
2022-09-29T06:44:35.627Z,0.00
2022-09-29T06:45:39.283Z,2.00
2022-09-29T06:46:42.946Z,2.00
2022-09-29T06:47:46.690Z,2.50
2022-09-29T06:48:50.243Z,2.50
2022-09-29T06:49:56.742Z,2.00
2022-09-29T06:51:08.226Z,2.25
2022-09-29T06:52:12.637Z,2.50
2022-09-29T06:53:07.605Z,2.75
2022-09-29T06:54:12.324Z,2.40
2022-09-29T06:55:15.776Z,2.00
2022-09-29T06:56:19.149Z,1.50
2022-09-29T06:57:22.471Z,2.00
2022-09-29T06:58:25.870Z,3.00
2022-09-29T06:59:29.238Z,1.80
2022-09-29T07:00:32.589Z,2.25
2022-09-29T07:01:36.103Z,2.25
2022-09-29T07:02:39.552Z,3.00
2022-09-29T07:03:43.014Z,3.50
2022-09-29T07:04:46.421Z,3.25
2022-09-29T07:06:15.210Z,3.20
2022-09-29T07:06:54.498Z,2.50
2022-09-29T07:08:00.895Z,2.00
2022-09-29T07:09:02.635Z,1.50
2022-09-29T07:10:05.950Z,3.25
2022-09-29T07:11:09.331Z,3.00
2022-09-29T07:12:12.656Z,3.50
2022-09-29T07:13:16.060Z,4.00
2022-09-29T07:14:19.686Z,4.50
2022-09-29T07:15:23.048Z,2.00
2022-09-29T07:16:26.476Z,2.00
2022-09-29T07:17:29.901Z,2.50
2022-09-29T07:18:33.310Z,4.50
2022-09-29T07:19:36.794Z,3.50
2022-09-29T07:20:40.204Z,4.00
2022-09-29T07:21:43.646Z,4.00
2022-09-29T07:22:47.049Z,4.40
2022-09-29T07:23:50.368Z,3.50
2022-09-29T07:24:53.852Z,5.00
2022-09-29T07:25:57.294Z,5.00
2022-09-29T07:27:00.686Z,3.50
2022-09-29T07:28:04.072Z,3.50
2022-09-29T07:29:10.225Z,5.50
2022-09-29T07:30:12.063Z,5.00
2022-09-29T07:31:15.911Z,5.25
2022-09-29T07:32:27.371Z,5.00
2022-09-29T07:33:35.537Z,5.00
2022-09-29T07:34:28.809Z,4.75
2022-09-29T07:35:35.157Z,4.75
2022-09-29T07:36:36.970Z,6.50
2022-09-29T07:37:40.312Z,7.50
2022-09-29T07:38:43.692Z,7.50
2022-09-29T07:39:46.972Z,8.00
2022-09-29T07:40:51.477Z,6.50
2022-09-29T07:41:55.038Z,6.00
2022-09-29T07:42:58.499Z,5.00
2022-09-29T07:44:01.970Z,7.50
2022-09-29T07:45:05.320Z,6.50
2022-09-29T07:46:08.813Z,4.00
2022-09-29T07:47:12.535Z,4.50
2022-09-29T07:48:15.973Z,6.00
2022-09-29T07:49:19.590Z,4.00
2022-09-29T07:50:22.947Z,5.75
2022-09-29T07:51:26.330Z,8.00
2022-09-29T07:52:29.710Z,7.00
2022-09-29T07:53:33.092Z,4.50
2022-09-29T07:54:36.793Z,5.50
2022-09-29T07:55:40.183Z,4.00
2022-09-29T07:56:44.431Z,3.20
2022-09-29T07:57:48.046Z,5.00
2022-09-29T07:58:51.671Z,7.00
2022-09-29T07:59:55.012Z,4.50
2022-09-29T08:00:58.320Z,3.00
2022-09-29T08:02:01.970Z,1.50
2022-09-29T08:03:05.602Z,3.50
2022-09-29T08:04:09.211Z,5.00
2022-09-29T08:05:12.552Z,4.50
2022-09-29T08:06:15.947Z,4.75
2022-09-29T08:07:19.404Z,4.50
2022-09-29T08:08:22.812Z,4.75
2022-09-29T08:09:38.026Z,4.50
2022-09-29T08:10:30.788Z,4.00
2022-09-29T08:11:34.105Z,5.00
2022-09-29T08:12:43.788Z,2.75
2022-09-29T08:13:42.411Z,3.50
2022-09-29T08:14:45.982Z,3.50
2022-09-29T08:15:49.370Z,3.00
2022-09-29T08:16:52.775Z,5.25
2022-09-29T08:17:56.324Z,4.50
2022-09-29T08:18:59.957Z,4.50
2022-09-29T08:20:03.603Z,5.75
2022-09-29T08:21:06.980Z,5.25
2022-09-29T08:22:10.383Z,4.25
2022-09-29T08:23:13.950Z,5.00
2022-09-29T08:24:17.326Z,4.00
2022-09-29T08:25:20.949Z,6.25
2022-09-29T08:26:37.281Z,6.00
2022-09-29T08:27:28.846Z,3.50
2022-09-29T08:28:32.779Z,4.50
2022-09-29T08:29:45.572Z,5.75
2022-09-29T08:30:41.324Z,6.25
2022-09-29T08:31:45.053Z,5.00
2022-09-29T08:32:48.643Z,4.00
2022-09-29T08:33:52.282Z,2.50
2022-09-29T08:34:55.713Z,4.75
2022-09-29T08:35:59.297Z,5.50
2022-09-29T08:37:02.906Z,3.50
2022-09-29T08:38:06.523Z,4.75
2022-09-29T08:39:10.209Z,6.00
2022-09-29T08:40:13.653Z,5.00
2022-09-29T08:41:17.202Z,4.00
2022-09-29T08:42:20.460Z,4.00
2022-09-29T08:43:33.781Z,4.00
2022-09-29T08:44:38.001Z,3.00
2022-09-29T08:45:33.514Z,4.50
2022-09-29T08:46:36.939Z,4.25
2022-09-29T08:47:47.382Z,3.75
2022-09-29T08:48:57.025Z,4.00
2022-09-29T08:49:52.941Z,3.25
2022-09-29T08:50:56.504Z,4.00
2022-09-29T08:52:12.749Z,3.25
2022-09-29T08:53:04.807Z,4.50
2022-09-29T08:54:08.307Z,1.75
2022-09-29T08:55:19.901Z,2.00
2022-09-29T08:56:16.532Z,4.25
2022-09-29T08:57:20.152Z,4.00
2022-09-29T08:58:23.669Z,2.00
2022-09-29T08:59:27.078Z,2.00
2022-09-29T09:00:30.533Z,2.50
2022-09-29T09:01:33.945Z,3.00
2022-09-29T09:02:37.621Z,5.75
2022-09-29T09:03:41.223Z,4.50
2022-09-29T09:04:45.048Z,2.00
2022-09-29T09:05:48.807Z,3.00
2022-09-29T09:06:52.385Z,5.00
2022-09-29T09:07:58.245Z,4.00
2022-09-29T09:09:00.824Z,2.50
2022-09-29T09:10:04.439Z,1.00
2022-09-29T09:11:07.940Z,1.50
2022-09-29T09:12:11.498Z,2.75
2022-09-29T09:13:14.963Z,3.25
2022-09-29T09:14:18.323Z,4.75
2022-09-29T09:15:21.844Z,4.75
2022-09-29T09:16:25.360Z,3.25
2022-09-29T09:17:28.762Z,4.00
2022-09-29T09:18:32.212Z,5.00
2022-09-29T09:19:35.749Z,3.25
2022-09-29T09:20:39.359Z,2.50
2022-09-29T09:21:43.114Z,3.00
2022-09-29T09:22:46.753Z,3.50
2022-09-29T09:23:50.311Z,2.50
2022-09-29T09:24:53.937Z,2.50
2022-09-29T09:25:57.575Z,3.00
2022-09-29T09:27:01.294Z,3.50
2022-09-29T09:28:04.863Z,5.50
2022-09-29T09:29:08.509Z,3.75
2022-09-29T09:30:12.012Z,3.75
2022-09-29T09:31:15.512Z,4.00
2022-09-29T09:32:18.933Z,4.50
2022-09-29T09:33:30.002Z,3.50
2022-09-29T09:34:39.980Z,3.25
2022-09-29T09:35:31.612Z,4.50
2022-09-29T09:36:35.436Z,5.50
2022-09-29T09:37:39.085Z,4.50
2022-09-29T09:38:42.760Z,4.50
2022-09-29T09:39:46.498Z,5.75
2022-09-29T09:40:50.140Z,5.00
2022-09-29T09:41:53.855Z,3.50
2022-09-29T09:42:57.561Z,5.50
2022-09-29T09:44:01.160Z,4.50
2022-09-29T09:45:04.787Z,3.50
2022-09-29T09:46:08.736Z,3.50
2022-09-29T09:47:12.466Z,5.00
2022-09-29T09:48:18.300Z,5.00
2022-09-29T09:49:20.900Z,3.50
2022-09-29T09:50:24.364Z,2.50
2022-09-29T09:51:27.694Z,4.50
2022-09-29T09:52:31.057Z,4.50
2022-09-29T09:53:34.554Z,4.25
2022-09-29T09:54:38.121Z,3.00
2022-09-29T09:55:41.829Z,3.00
2022-09-29T09:56:45.386Z,3.50
2022-09-29T09:57:49.026Z,3.25
2022-09-29T09:58:52.654Z,4.75
2022-09-29T09:59:57.424Z,4.00
2022-09-29T10:01:01.058Z,3.67
2022-09-29T10:02:04.710Z,4.00
2022-09-29T10:03:08.347Z,3.50
2022-09-29T10:04:12.036Z,4.00
2022-09-29T10:05:15.595Z,4.00
2022-09-29T10:06:18.818Z,4.25
2022-09-29T10:07:22.366Z,4.00
2022-09-29T10:08:25.729Z,3.50
2022-09-29T10:09:29.361Z,4.25
2022-09-29T10:10:32.818Z,5.00
2022-09-29T10:11:36.282Z,4.75
2022-09-29T10:12:40.003Z,5.50
2022-09-29T10:13:51.992Z,5.50
2022-09-29T10:14:56.172Z,2.25
2022-09-29T10:16:00.380Z,4.00
2022-09-29T10:17:04.416Z,3.50
2022-09-29T10:18:08.906Z,3.50
2022-09-29T10:19:13.220Z,3.00
2022-09-29T10:20:17.102Z,3.00
2022-09-29T10:21:21.513Z,2.50
2022-09-29T10:22:26.030Z,2.75
2022-09-29T10:23:29.721Z,4.75
2022-09-29T10:24:33.552Z,3.00
2022-09-29T10:25:37.523Z,3.00
2022-09-29T10:26:41.940Z,4.00
2022-09-29T10:27:46.179Z,4.00
2022-09-29T10:28:50.144Z,3.50
2022-09-29T10:29:53.901Z,4.00
2022-09-29T10:30:58.215Z,5.00
2022-09-29T10:32:02.564Z,5.25
2022-09-29T10:33:10.406Z,5.75
2022-09-29T10:34:12.090Z,5.00
2022-09-29T10:35:16.285Z,3.50
2022-09-29T10:36:20.196Z,4.50
2022-09-29T10:37:24.188Z,4.00
2022-09-29T10:38:28.206Z,3.50
2022-09-29T10:39:32.602Z,3.00
2022-09-29T10:40:36.601Z,5.50
2022-09-29T10:41:40.308Z,4.00
2022-09-29T10:42:44.195Z,2.25
2022-09-29T10:43:48.194Z,3.25
2022-09-29T10:44:52.097Z,3.50
2022-09-29T10:45:56.084Z,5.00
2022-09-29T10:46:59.928Z,3.75
2022-09-29T10:48:03.889Z,2.75
2022-09-29T10:49:07.608Z,2.00
2022-09-29T10:50:11.491Z,3.50
2022-09-29T10:51:15.591Z,4.00
2022-09-29T10:52:19.347Z,2.75
2022-09-29T10:53:23.188Z,3.25
2022-09-29T10:54:27.086Z,3.00
2022-09-29T10:55:31.076Z,3.50
2022-09-29T10:56:35.078Z,2.50
2022-09-29T10:57:39.185Z,3.50
2022-09-29T10:58:45.614Z,3.00
2022-09-29T10:59:48.212Z,1.00
2022-09-29T11:00:52.346Z,2.25
2022-09-29T11:01:56.418Z,3.50
2022-09-29T11:03:00.628Z,3.50
2022-09-29T11:04:04.950Z,2.75
2022-09-29T11:05:09.264Z,2.25
2022-09-29T11:06:13.448Z,2.00
2022-09-29T11:07:17.813Z,1.25
2022-09-29T11:08:21.509Z,2.00
2022-09-29T11:09:25.788Z,2.75
2022-09-29T11:10:29.769Z,4.50
2022-09-29T11:11:33.448Z,5.00
2022-09-29T11:12:37.994Z,3.00
2022-09-29T11:13:42.070Z,3.75
2022-09-29T11:14:46.281Z,4.75
2022-09-29T11:15:50.485Z,5.00
2022-09-29T11:16:54.777Z,4.50
2022-09-29T11:17:59.034Z,5.25
2022-09-29T11:19:04.138Z,4.50
2022-09-29T11:20:08.017Z,3.50
2022-09-29T11:21:12.113Z,3.50
2022-09-29T11:22:16.130Z,2.00
2022-09-29T11:23:20.303Z,3.00
2022-09-29T11:24:24.023Z,3.00
2022-09-29T11:25:27.954Z,2.00
2022-09-29T11:26:31.731Z,2.75
2022-09-29T11:27:35.726Z,2.75
2022-09-29T11:28:40.029Z,5.00
2022-09-29T11:29:44.134Z,5.00
2022-09-29T11:30:48.380Z,4.25
2022-09-29T11:31:52.448Z,3.75
2022-09-29T11:32:56.749Z,4.50
2022-09-29T11:34:00.854Z,4.50
2022-09-29T11:35:04.853Z,4.50
2022-09-29T11:36:09.057Z,5.00
2022-09-29T11:37:12.987Z,2.50
2022-09-29T11:38:16.664Z,3.25
2022-09-29T11:39:20.666Z,4.25
2022-09-29T11:40:24.345Z,4.00
2022-09-29T11:41:28.450Z,4.00
2022-09-29T11:42:32.347Z,2.50
2022-09-29T11:43:36.453Z,2.75
2022-09-29T11:44:40.665Z,3.50
2022-09-29T11:45:44.844Z,3.00
2022-09-29T11:46:48.867Z,3.00
2022-09-29T11:47:53.081Z,2.50
2022-09-29T11:48:57.068Z,4.00
2022-09-29T11:50:01.072Z,5.25
2022-09-29T11:51:05.173Z,3.50
2022-09-29T11:52:09.249Z,4.00
2022-09-29T11:53:13.185Z,4.00
2022-09-29T11:54:17.092Z,3.25
2022-09-29T11:55:21.403Z,3.25
2022-09-29T11:56:25.182Z,2.50
2022-09-29T11:57:28.985Z,3.00
2022-09-29T11:58:32.976Z,4.50
2022-09-29T11:59:36.991Z,4.75
2022-09-29T12:00:40.992Z,5.75
2022-09-29T12:01:45.340Z,3.75
2022-09-29T12:02:49.528Z,3.25
2022-09-29T12:03:53.580Z,4.00
2022-09-29T12:04:57.702Z,2.50
2022-09-29T12:06:01.656Z,3.25
2022-09-29T12:07:05.295Z,4.75
2022-09-29T12:08:09.106Z,4.00
2022-09-29T12:09:13.215Z,4.00
2022-09-29T12:10:17.161Z,3.00
2022-09-29T12:11:44.392Z,3.50
2022-09-29T12:12:26.216Z,3.75
2022-09-29T12:13:30.121Z,2.25
2022-09-29T12:14:36.485Z,5.50
2022-09-29T12:15:40.958Z,5.00
2022-09-29T12:16:43.994Z,3.00
2022-09-29T12:17:47.964Z,2.50
2022-09-29T12:18:51.761Z,4.25
2022-09-29T12:19:55.538Z,3.75
2022-09-29T12:20:59.250Z,1.00
2022-09-29T12:22:03.147Z,1.50
2022-09-29T12:23:06.987Z,1.75
2022-09-29T12:24:10.510Z,2.75
2022-09-29T12:25:14.233Z,3.00
2022-09-29T12:26:17.937Z,1.75
2022-09-29T12:27:21.821Z,3.00
2022-09-29T12:28:25.621Z,3.25
2022-09-29T12:29:29.521Z,3.25
2022-09-29T12:30:33.568Z,3.50
2022-09-29T12:31:37.313Z,3.75
2022-09-29T12:32:41.650Z,3.00
2022-09-29T12:33:45.732Z,3.50
2022-09-29T12:34:49.959Z,2.75
2022-09-29T12:35:54.043Z,5.25
2022-09-29T12:36:58.150Z,4.25
2022-09-29T12:38:02.150Z,2.75
2022-09-29T12:39:10.170Z,4.50
2022-09-29T12:40:11.270Z,2.75
2022-09-29T12:41:15.274Z,2.00
2022-09-29T12:42:19.090Z,2.25
2022-09-29T12:43:23.272Z,2.00
2022-09-29T12:44:27.172Z,2.25
2022-09-29T12:45:34.334Z,2.75
2022-09-29T12:46:35.946Z,3.50
2022-09-29T12:47:39.796Z,3.00
2022-09-29T12:48:43.793Z,1.75
2022-09-29T12:49:48.004Z,2.00
2022-09-29T12:50:52.108Z,3.75
2022-09-29T12:51:56.305Z,4.25
2022-09-29T12:53:00.581Z,4.50
2022-09-29T12:54:04.826Z,3.00
2022-09-29T12:55:08.728Z,2.50
2022-09-29T12:56:12.853Z,3.50
2022-09-29T12:57:16.894Z,3.00
2022-09-29T12:58:20.524Z,2.25
2022-09-29T12:59:24.324Z,4.00
2022-09-29T13:00:28.217Z,6.00
2022-09-29T13:01:31.967Z,4.00
2022-09-29T13:02:35.753Z,3.00
2022-09-29T13:03:39.607Z,3.50
2022-09-29T13:04:43.707Z,2.50
2022-09-29T13:05:47.774Z,1.50
2022-09-29T13:06:51.710Z,3.00
2022-09-29T13:07:55.924Z,3.25
2022-09-29T13:08:59.985Z,3.50
2022-09-29T13:10:03.914Z,2.50
2022-09-29T13:11:07.824Z,2.50
2022-09-29T13:12:11.912Z,3.00
2022-09-29T13:13:15.925Z,3.50
2022-09-29T13:14:19.620Z,5.25
2022-09-29T13:15:23.916Z,4.50
2022-09-29T13:16:27.650Z,4.50
2022-09-29T13:17:31.449Z,5.00
2022-09-29T13:18:35.307Z,3.50
2022-09-29T13:19:56.859Z,3.50
2022-09-29T13:20:44.341Z,3.00
2022-09-29T13:21:48.441Z,4.75
2022-09-29T13:22:52.244Z,4.00
2022-09-29T13:23:56.133Z,2.75
2022-09-29T13:24:59.825Z,4.50
2022-09-29T13:26:03.624Z,4.50
2022-09-29T13:27:07.315Z,4.00
2022-09-29T13:28:11.129Z,5.00
2022-09-29T13:29:15.017Z,4.50
2022-09-29T13:30:18.807Z,4.75
2022-09-29T13:31:22.851Z,5.50
2022-09-29T13:32:26.607Z,4.75
2022-09-29T13:33:30.402Z,4.50
2022-09-29T13:34:34.403Z,3.00
2022-09-29T13:35:38.505Z,5.00
2022-09-29T13:36:42.305Z,5.00
2022-09-29T13:37:45.892Z,3.75
2022-09-29T13:38:49.673Z,3.25
2022-09-29T13:39:55.015Z,2.00
2022-09-29T13:40:58.230Z,4.00
2022-09-29T13:42:01.999Z,3.00
2022-09-29T13:43:05.792Z,4.00
2022-09-29T13:44:09.494Z,6.75
2022-09-29T13:45:13.511Z,5.50
2022-09-29T13:46:17.137Z,5.00
2022-09-29T13:47:21.086Z,6.00
2022-09-29T13:48:24.886Z,4.50
2022-09-29T13:49:28.994Z,3.00
2022-09-29T13:50:32.688Z,2.50
2022-09-29T13:51:36.476Z,1.75
2022-09-29T13:52:40.471Z,3.00
2022-09-29T13:53:44.577Z,3.00
2022-09-29T13:54:48.686Z,3.00
2022-09-29T13:55:52.889Z,4.75
2022-09-29T13:56:56.922Z,6.00
2022-09-29T13:58:00.873Z,6.75
2022-09-29T13:59:04.763Z,4.00
2022-09-29T14:00:08.806Z,3.50
2022-09-29T14:01:12.776Z,2.75
2022-09-29T14:02:16.823Z,3.25
2022-09-29T14:03:21.249Z,5.00
2022-09-29T14:04:25.009Z,4.00
2022-09-29T14:05:28.903Z,2.75
2022-09-29T14:06:47.574Z,1.50
2022-09-29T14:07:37.533Z,3.00
2022-09-29T14:08:41.540Z,4.50